Time;durP1;ratioP1;P1;durP2;ratioP2;P2;SDS_P1;SDS_P2;PMS_P1;PMS_P2;Temp;Humidity;BMP_temperature;BMP_pressure;BME280_temperature;BME280_humidity;BME280_pressure;Samples;Min_cycle;Max_cycle;Signal;HPM_P1;HPM_P2
2021/09/11 00:00:28;;;;;;;14.20;5.10;;;18.60;99.90;;;;;;5049689;28;20495;-91
2021/09/11 00:02:56;;;;;;;23.05;6.20;;;19.40;99.90;;;;;;5048592;28;20061;-91
2021/09/11 00:05:27;;;;;;;11.30;6.43;;;18.60;99.90;;;;;;5022004;28;20053;-92
2021/09/11 00:08:12;;;;;;;;;;;18.60;99.90;;;;;;5033483;28;20065;-92
2021/09/11 00:10:55;;;;;;;18.58;5.18;;;18.60;99.90;;;;;;5047675;28;19925;-94
2021/09/11 00:13:26;;;;;;;20.10;7.40;;;18.60;99.90;;;;;;5031338;28;20065;-89
2021/09/11 00:15:54;;;;;;;23.58;7.25;;;18.60;99.90;;;;;;5030258;28;20061;-91
2021/09/11 00:18:27;;;;;;;15.55;5.82;;;18.50;99.90;;;;;;5063037;28;20055;-92
2021/09/11 00:21:02;;;;;;;13.55;6.72;;;18.70;99.90;;;;;;5047126;28;20057;-90
2021/09/11 00:23:38;;;;;;;13.67;7.00;;;18.60;99.90;;;;;;5045396;28;20059;-91
2021/09/11 00:26:11;;;;;;;14.80;6.38;;;18.60;99.90;;;;;;5046168;28;20087;-90
2021/09/11 00:30:13;;;;;;;11.50;5.88;;;18.60;99.90;;;;;;5084353;27;20391;-88
2021/09/11 00:32:48;;;;;;;15.60;7.07;;;18.60;99.90;;;;;;5064691;28;20041;-89
2021/09/11 00:35:17;;;;;;;;;;;18.60;99.90;;;;;;5069194;28;20029;-89
2021/09/11 00:37:48;;;;;;;13.10;5.28;;;18.70;99.90;;;;;;5087244;28;19931;-89
2021/09/11 00:40:20;;;;;;;16.33;6.50;;;18.60;99.90;;;;;;5072300;28;20055;-90
2021/09/11 00:43:01;;;;;;;14.68;6.35;;;18.60;99.90;;;;;;5073746;28;20052;-90
2021/09/11 00:45:49;;;;;;;22.80;7.03;;;18.50;99.90;;;;;;5068755;28;20056;-91
2021/09/11 00:48:22;;;;;;;13.38;5.72;;;18.60;99.90;;;;;;5080655;28;20053;-90
2021/09/11 00:51:01;;;;;;;19.73;7.75;;;18.60;99.90;;;;;;5065633;28;20041;-89
2021/09/11 00:53:33;;;;;;;13.23;6.68;;;18.60;99.90;;;;;;5048228;28;20064;-89
2021/09/11 00:56:01;;;;;;;12.02;5.93;;;18.60;99.90;;;;;;5025126;28;20053;-89
2021/09/11 00:58:32;;;;;;;17.50;7.38;;;18.60;99.90;;;;;;5096238;28;20041;-90
2021/09/11 01:01:06;;;;;;;13.27;6.22;;;18.60;99.90;;;;;;5062559;28;20056;-88
2021/09/11 01:03:38;;;;;;;16.05;6.72;;;18.60;99.90;;;;;;5062136;28;20056;-89
2021/09/11 01:06:22;;;;;;;14.65;6.07;;;18.60;99.90;;;;;;5051047;28;20048;-90
2021/09/11 01:08:53;;;;;;;21.70;8.02;;;18.60;99.90;;;;;;5056742;28;20052;-89
2021/09/11 01:11:25;;;;;;;15.18;6.63;;;18.60;99.90;;;;;;5099453;28;20048;-91
2021/09/11 01:14:15;;;;;;;19.33;8.15;;;18.60;99.90;;;;;;5043919;28;20041;-90
2021/09/11 01:16:48;;;;;;;12.30;6.72;;;18.50;99.90;;;;;;5077182;28;20527;-89
2021/09/11 01:19:26;;;;;;;18.85;7.82;;;18.50;99.90;;;;;;5081918;28;20050;-91
2021/09/11 01:22:05;;;;;;;17.30;8.00;;;18.60;99.90;;;;;;5082826;28;20032;-89
2021/09/11 01:25:09;;;;;;;18.63;9.23;;;18.50;99.90;;;;;;5092927;28;20047;-90
2021/09/11 01:27:51;;;;;;;20.92;7.22;;;18.50;99.90;;;;;;5078984;28;20307;-89
2021/09/11 01:30:35;;;;;;;14.00;6.38;;;18.50;99.90;;;;;;5065352;28;20057;-90
2021/09/11 01:33:04;;;;;;;;;;;18.50;99.90;;;;;;5082960;28;20051;-90
2021/09/11 01:35:39;;;;;;;17.88;8.45;;;18.50;99.90;;;;;;5080004;28;20485;-90
2021/09/11 01:38:10;;;;;;;17.83;8.27;;;18.50;99.90;;;;;;5064970;28;20053;-91
2021/09/11 01:40:38;;;;;;;14.40;8.00;;;18.50;99.90;;;;;;5054648;28;20044;-90
2021/09/11 01:43:31;;;;;;;17.42;7.50;;;18.50;99.90;;;;;;5066324;28;20052;-90
2021/09/11 01:46:08;;;;;;;19.40;7.93;;;18.40;99.90;;;;;;5066757;28;20049;-90
2021/09/11 01:48:37;;;;;;;14.73;7.82;;;18.40;99.90;;;;;;5083622;28;20838;-89
2021/09/11 01:51:07;;;;;;;20.83;9.05;;;18.40;99.90;;;;;;5037501;28;20391;-89
2021/09/11 01:53:37;;;;;;;17.80;9.23;;;18.50;99.90;;;;;;5062606;28;20048;-91
2021/09/11 01:56:20;;;;;;;18.33;9.57;;;18.40;99.90;;;;;;5068513;28;20111;-89
2021/09/11 01:59:19;;;;;;;;;;;18.40;99.90;;;;;;5068153;28;20502;-90
2021/09/11 02:01:56;;;;;;;18.00;8.68;;;18.40;99.90;;;;;;5069851;28;19925;-88
2021/09/11 02:04:29;;;;;;;23.90;9.85;;;18.40;99.90;;;;;;5067859;28;20052;-90
2021/09/11 02:06:57;;;;;;;20.77;9.15;;;18.40;99.90;;;;;;5072044;28;20036;-90
2021/09/11 02:09:32;;;;;;;21.98;8.88;;;18.40;99.90;;;;;;5058636;28;20056;-89
2021/09/11 02:12:12;;;;;;;20.08;10.48;;;18.40;99.90;;;;;;5051273;28;20047;-89
2021/09/11 02:14:44;;;;;;;24.02;8.55;;;18.40;99.90;;;;;;5053304;28;20060;-89
2021/09/11 02:17:17;;;;;;;17.23;8.32;;;18.40;99.90;;;;;;5069912;28;20403;-89
2021/09/11 02:20:24;;;;;;;21.02;9.32;;;18.40;99.90;;;;;;5067479;28;20032;-91
2021/09/11 02:22:56;;;;;;;25.20;10.77;;;18.40;99.90;;;;;;5066220;28;20048;-89
2021/09/11 02:25:24;;;;;;;21.58;10.35;;;18.40;99.90;;;;;;5035242;28;20384;-90
2021/09/11 02:27:57;;;;;;;23.80;8.98;;;18.40;99.90;;;;;;5058690;28;20049;-92
2021/09/11 02:30:31;;;;;;;19.55;9.50;;;18.40;99.90;;;;;;5078925;28;20526;-91
2021/09/11 02:33:03;;;;;;;21.73;9.88;;;18.40;99.90;;;;;;5068511;28;20036;-91
2021/09/11 02:35:36;;;;;;;23.33;9.98;;;18.40;99.90;;;;;;5057467;28;20049;-92
2021/09/11 02:38:09;;;;;;;19.73;9.52;;;18.40;99.90;;;;;;5052966;28;20045;-92
2021/09/11 02:40:40;;;;;;;19.42;9.13;;;18.40;99.90;;;;;;5054577;28;20051;-91
2021/09/11 02:43:40;;;;;;;28.25;10.88;;;18.40;99.90;;;;;;5064696;28;20041;-92
2021/09/11 02:46:11;;;;;;;26.67;10.65;;;18.40;99.90;;;;;;5082804;28;20053;-90
2021/09/11 02:48:43;;;;;;;20.98;9.07;;;18.40;99.90;;;;;;5054458;28;20068;-92
2021/09/11 02:51:19;;;;;;;21.63;10.10;;;18.40;99.90;;;;;;5070248;28;20052;-92
2021/09/11 02:53:49;;;;;;;20.33;9.82;;;18.40;99.90;;;;;;5052662;28;20060;-91
2021/09/11 02:56:35;;;;;;;24.95;10.90;;;18.30;99.90;;;;;;5051287;28;20057;-91
2021/09/11 02:59:10;;;;;;;16.92;9.57;;;18.30;99.90;;;;;;5046125;28;20050;-91
2021/09/11 03:01:43;;;;;;;19.33;9.45;;;18.30;99.90;;;;;;5072843;28;20052;-91
2021/09/11 03:04:33;;;;;;;16.83;8.55;;;18.30;99.90;;;;;;5087734;28;20048;-91
2021/09/11 03:07:08;;;;;;;25.80;9.93;;;18.30;99.90;;;;;;5068654;28;20053;-91
2021/09/11 03:09:40;;;;;;;16.92;8.20;;;18.30;99.90;;;;;;5066316;28;20151;-92
2021/09/11 03:12:10;;;;;;;19.23;10.07;;;18.30;99.90;;;;;;5084118;28;20045;-90
2021/09/11 03:14:42;;;;;;;19.48;9.05;;;18.30;99.90;;;;;;5037900;28;20056;-89
2021/09/11 03:17:11;;;;;;;23.45;9.88;;;18.30;99.90;;;;;;5068404;28;20055;-90
2021/09/11 03:19:41;;;;;;;19.48;9.60;;;18.30;99.90;;;;;;5067258;28;20484;-91
2021/09/11 03:22:12;;;;;;;21.95;9.00;;;18.30;99.90;;;;;;5068420;28;20041;-91
2021/09/11 03:24:42;;;;;;;22.35;10.40;;;18.30;99.90;;;;;;5033418;28;20049;-89
2021/09/11 03:27:18;;;;;;;25.40;9.82;;;18.30;99.90;;;;;;5047506;28;20033;-87
2021/09/11 03:29:54;;;;;;;15.85;8.80;;;18.30;99.90;;;;;;5045549;28;20057;-90
2021/09/11 03:32:41;;;;;;;22.25;9.57;;;18.30;99.90;;;;;;5065513;28;20049;-90
2021/09/11 03:35:11;;;;;;;21.27;10.02;;;18.20;99.90;;;;;;5050011;28;20045;-88
2021/09/11 03:37:49;;;;;;;23.08;10.63;;;18.20;99.90;;;;;;5064535;28;20057;-89
2021/09/11 03:40:20;;;;;;;29.83;10.68;;;18.20;99.90;;;;;;5064904;28;20048;-89
2021/09/11 03:42:50;;;;;;;21.25;9.85;;;18.20;99.90;;;;;;5079223;28;20041;-90
2021/09/11 03:45:24;;;;;;;18.52;9.32;;;18.20;99.90;;;;;;5033384;28;20053;-88
2021/09/11 03:47:55;;;;;;;22.35;10.18;;;18.20;99.90;;;;;;5044266;28;20048;-89
2021/09/11 03:50:28;;;;;;;21.98;10.35;;;18.20;99.90;;;;;;5086480;28;20045;-89
2021/09/11 03:53:02;;;;;;;21.88;11.27;;;18.20;99.90;;;;;;5045642;28;20044;-89
2021/09/11 03:55:37;;;;;;;26.83;9.05;;;18.10;99.90;;;;;;5048876;28;20049;-89
2021/09/11 03:58:21;;;;;;;19.17;9.40;;;18.20;99.90;;;;;;5063916;28;20059;-89
2021/09/11 04:01:04;;;;;;;21.77;9.13;;;18.20;99.90;;;;;;5064236;28;20045;-89
2021/09/11 04:03:40;;;;;;;25.52;10.40;;;18.20;99.90;;;;;;5065012;28;20482;-88
2021/09/11 04:06:15;;;;;;;18.38;9.07;;;18.20;99.90;;;;;;5065215;28;20067;-89
2021/09/11 04:08:56;;;;;;;18.67;8.05;;;18.20;99.90;;;;;;5036322;28;20062;-89
2021/09/11 04:11:27;;;;;;;24.85;9.57;;;18.10;99.90;;;;;;5063467;28;20068;-90
2021/09/11 04:13:59;;;;;;;17.05;8.55;;;18.10;99.90;;;;;;5050002;28;20047;-90
2021/09/11 04:16:30;;;;;;;22.60;10.65;;;18.20;99.90;;;;;;5066112;28;20060;-89
2021/09/11 04:18:59;;;;;;;21.63;8.98;;;18.10;99.90;;;;;;5064194;28;20049;-89
2021/09/11 04:21:26;;;;;;;19.77;9.35;;;18.10;99.90;;;;;;5030329;28;20057;-90
2021/09/11 04:23:55;;;;;;;19.02;8.43;;;18.10;99.90;;;;;;5074781;28;20049;-89
2021/09/11 04:26:31;;;;;;;19.40;10.00;;;18.10;99.90;;;;;;5048259;28;20049;-89
2021/09/11 04:29:06;;;;;;;20.75;10.98;;;18.10;99.90;;;;;;5066446;28;20037;-91
2021/09/11 04:31:34;;;;;;;17.13;8.77;;;18.10;99.90;;;;;;5030078;28;20053;-89
2021/09/11 04:34:03;;;;;;;24.48;9.77;;;18.10;99.90;;;;;;5060633;28;20477;-89
2021/09/11 04:36:31;;;;;;;26.63;10.32;;;18.10;99.90;;;;;;5055350;28;20049;-90
2021/09/11 04:39:01;;;;;;;16.88;8.48;;;18.10;99.90;;;;;;5050661;28;20051;-90
2021/09/11 04:41:35;;;;;;;20.63;9.25;;;18.10;99.90;;;;;;5063712;28;20053;-87
2021/09/11 04:44:08;;;;;;;25.15;9.30;;;18.10;99.90;;;;;;5048250;28;20473;-89
2021/09/11 04:46:37;;;;;;;21.77;8.60;;;18.10;99.90;;;;;;5075992;28;20055;-89
2021/09/11 04:49:07;;;;;;;25.77;10.95;;;18.10;99.90;;;;;;5053802;28;20042;-90
2021/09/11 04:51:45;;;;;;;18.25;9.13;;;18.10;99.90;;;;;;5061624;28;20051;-90
2021/09/11 04:54:15;;;;;;;28.42;8.73;;;18.10;99.90;;;;;;5050677;28;20075;-92
2021/09/11 04:56:43;;;;;;;21.25;9.70;;;18.10;99.90;;;;;;5065995;28;20061;-89
2021/09/11 04:59:33;;;;;;;22.35;10.05;;;18.10;99.90;;;;;;5065841;28;20067;-89
2021/09/11 05:02:10;;;;;;;19.83;9.65;;;18.00;99.90;;;;;;5067956;28;20056;-89
2021/09/11 05:04:45;;;;;;;22.38;8.20;;;18.60;99.90;;;;;;5043947;28;20037;-89
2021/09/11 05:07:21;;;;;;;18.35;8.63;;;18.10;99.90;;;;;;5057396;28;20048;-88
2021/09/11 05:09:54;;;;;;;18.40;9.00;;;18.10;99.90;;;;;;5035611;28;20072;-89
2021/09/11 05:12:44;;;;;;;18.83;10.18;;;18.00;99.90;;;;;;5055801;28;20056;-90
2021/09/11 05:15:16;;;;;;;;;;;18.10;99.90;;;;;;5033310;28;20041;-89
2021/09/11 05:17:52;;;;;;;18.35;8.15;;;18.00;99.90;;;;;;5061433;28;19921;-89
2021/09/11 05:20:23;;;;;;;15.52;7.63;;;18.00;99.90;;;;;;5072228;28;20518;-87
2021/09/11 05:23:34;;;;;;;21.02;10.98;;;18.10;99.90;;;;;;5093244;28;20049;-90
2021/09/11 05:26:21;;;;;;;17.98;7.95;;;18.00;99.90;;;;;;5058103;28;20049;-91
2021/09/11 05:29:18;;;;;;;19.95;8.57;;;18.00;99.90;;;;;;5075832;28;20043;-89
2021/09/11 05:32:13;;;;;;;16.48;8.23;;;17.90;99.90;;;;;;5071892;28;20500;-89
2021/09/11 05:34:44;;;;;;;14.55;8.02;;;18.00;99.90;;;;;;5025001;28;20049;-88
2021/09/11 05:37:15;;;;;;;16.80;7.47;;;18.60;99.90;;;;;;5072795;28;20061;-89
2021/09/11 05:40:31;;;;;;;19.00;8.32;;;18.60;99.90;;;;;;5060503;28;20067;-90
2021/09/11 05:43:31;;;;;;;18.30;8.13;;;18.00;99.90;;;;;;5079152;28;20056;-91
2021/09/11 05:46:31;;;;;;;16.50;7.50;;;18.10;99.90;;;;;;5070011;28;20063;-89
2021/09/11 05:49:44;;;;;;;22.33;8.75;;;18.70;99.90;;;;;;5073647;28;20057;-90
2021/09/11 05:52:44;;;;;;;21.05;8.63;;;18.10;99.90;;;;;;5072951;28;20061;-90
2021/09/11 05:55:17;;;;;;;18.45;7.65;;;18.00;99.90;;;;;;5053607;28;20044;-88
2021/09/11 05:57:56;;;;;;;19.85;7.68;;;18.00;99.90;;;;;;5071528;28;20049;-90
2021/09/11 06:00:42;;;;;;;18.35;7.55;;;18.30;99.90;;;;;;5039444;28;20055;-88
2021/09/11 06:03:42;;;;;;;16.63;7.68;;;18.00;99.90;;;;;;5071051;28;20043;-90
2021/09/11 06:09:30;;;;;;;16.00;8.23;;;18.00;99.90;;;;;;5062112;28;20053;-90
2021/09/11 06:12:12;;;;;;;17.55;7.80;;;18.00;99.90;;;;;;5067620;28;20045;-90
2021/09/11 06:14:50;;;;;;;16.80;7.55;;;18.00;99.90;;;;;;5033141;28;20389;-89
2021/09/11 06:17:18;;;;;;;16.63;7.70;;;18.00;99.90;;;;;;5051241;28;20056;-90
2021/09/11 06:20:09;;;;;;;16.52;7.20;;;18.10;99.90;;;;;;5064307;28;20071;-90
2021/09/11 06:22:39;;;;;;;12.55;7.43;;;18.10;99.90;;;;;;5069625;28;20045;-89
2021/09/11 06:25:14;;;;;;;20.43;7.87;;;18.00;99.90;;;;;;5070123;28;20064;-89
2021/09/11 06:28:23;;;;;;;17.27;7.88;;;18.30;99.90;;;;;;5070482;28;20045;-88
2021/09/11 06:31:14;;;;;;;15.55;7.43;;;18.10;99.90;;;;;;5071387;28;20044;-90
2021/09/11 06:33:50;;;;;;;15.55;7.10;;;18.10;99.90;;;;;;5075506;28;20071;-90
2021/09/11 06:36:31;;;;;;;13.38;6.38;;;18.10;99.90;;;;;;5054781;28;20052;-90
2021/09/11 06:39:17;;;;;;;13.93;6.63;;;18.00;99.90;;;;;;5071851;28;20052;-88
2021/09/11 06:42:14;;;;;;;16.05;7.32;;;18.10;99.90;;;;;;5055878;28;20115;-89
2021/09/11 06:45:11;;;;;;;15.35;8.90;;;18.10;99.90;;;;;;5059750;28;20049;-89
2021/09/11 06:47:44;;;;;;;16.65;6.93;;;18.10;99.90;;;;;;5050296;28;20049;-89
2021/09/11 06:50:37;;;;;;;14.52;6.05;;;18.00;99.90;;;;;;5032785;28;20053;-90
2021/09/11 06:53:33;;;;;;;17.55;8.10;;;18.20;99.90;;;;;;5053887;28;20061;-88
2021/09/11 06:56:29;;;;;;;13.57;7.45;;;18.20;99.90;;;;;;5055598;28;20050;-89
2021/09/11 06:59:12;;;;;;;15.68;7.45;;;18.20;99.90;;;;;;5071134;28;20064;-89
2021/09/11 07:02:09;;;;;;;15.98;7.20;;;18.20;99.90;;;;;;5072223;28;20059;-89
2021/09/11 07:04:57;;;;;;;14.55;7.55;;;18.20;99.90;;;;;;5066703;28;20059;-90
2021/09/11 07:07:48;;;;;;;15.50;6.75;;;18.20;99.90;;;;;;5057105;28;20063;-91
2021/09/11 07:10:21;;;;;;;17.33;6.63;;;18.20;99.90;;;;;;5038506;28;20055;-91
2021/09/11 07:12:52;;;;;;;18.23;8.35;;;18.20;99.90;;;;;;5081022;28;20052;-88
2021/09/11 07:15:24;;;;;;;;;;;18.20;99.90;;;;;;5055960;28;20628;-88
2021/09/11 07:18:21;;;;;;;13.52;6.50;;;18.30;99.90;;;;;;5101806;28;19908;-90
2021/09/11 07:20:56;;;;;;;16.67;8.95;;;18.40;99.90;;;;;;5054183;28;20057;-90
2021/09/11 07:23:37;;;;;;;17.88;6.35;;;18.30;99.90;;;;;;5037350;28;20056;-90
2021/09/11 07:26:47;;;;;;;14.45;7.80;;;18.30;99.90;;;;;;5069874;28;20059;-89
2021/09/11 07:29:40;;;;;;;20.33;7.55;;;18.40;99.90;;;;;;5060454;28;20115;-89
2021/09/11 07:32:20;;;;;;;17.27;6.80;;;18.30;99.90;;;;;;5042789;28;20043;-90
2021/09/11 07:35:08;;;;;;;17.55;9.77;;;18.40;99.90;;;;;;5068155;28;20052;-89
2021/09/11 07:37:56;;;;;;;15.80;8.68;;;18.30;99.90;;;;;;5073464;28;20059;-90
2021/09/11 07:40:31;;;;;;;16.02;7.85;;;18.40;99.90;;;;;;5075535;28;20047;-89
2021/09/11 07:43:26;;;;;;;11.90;6.53;;;18.30;99.90;;;;;;5077508;28;20041;-92
2021/09/11 07:46:37;;;;;;;16.63;6.80;;;18.40;99.90;;;;;;5064114;28;20053;-92
2021/09/11 07:50:14;;;;;;;16.27;6.57;;;18.40;99.90;;;;;;5059887;28;20045;-90
2021/09/11 07:53:14;;;;;;;18.83;6.22;;;18.40;99.90;;;;;;5043239;28;20049;-90
2021/09/11 07:55:45;;;;;;;16.95;7.72;;;18.40;99.90;;;;;;5074083;28;20060;-91
2021/09/11 07:58:37;;;;;;;17.05;7.50;;;18.40;99.90;;;;;;5047706;28;20052;-91
2021/09/11 08:01:22;;;;;;;17.73;7.68;;;18.40;99.90;;;;;;5072473;28;20059;-91
2021/09/11 08:04:15;;;;;;;14.93;6.38;;;18.40;99.90;;;;;;5062389;28;20047;-92
2021/09/11 08:07:05;;;;;;;13.57;7.18;;;18.40;99.90;;;;;;5071654;28;20415;-91
2021/09/11 08:10:15;;;;;;;16.83;6.90;;;18.40;99.90;;;;;;5052420;28;20399;-90
2021/09/11 08:13:22;;;;;;;15.77;7.60;;;18.40;99.90;;;;;;5059322;28;20298;-91
2021/09/11 08:16:15;;;;;;;17.55;7.53;;;18.40;99.90;;;;;;5062085;28;20068;-92
2021/09/11 08:19:06;;;;;;;12.68;7.38;;;18.20;99.90;;;;;;5072824;28;20064;-91
2021/09/11 08:21:52;;;;;;;14.75;7.35;;;18.40;99.90;;;;;;5057775;28;20330;-90
2021/09/11 08:24:49;;;;;;;17.85;7.60;;;18.50;99.90;;;;;;5070433;28;20052;-90
2021/09/11 08:27:31;;;;;;;16.92;7.65;;;18.50;99.90;;;;;;5056044;28;20044;-89
2021/09/11 08:30:24;;;;;;;15.50;6.28;;;18.50;99.90;;;;;;5056782;28;20061;-89
2021/09/11 08:33:24;;;;;;;17.13;7.07;;;18.50;99.90;;;;;;5071143;28;20063;-91
2021/09/11 08:36:01;;;;;;;21.25;7.78;;;18.50;99.90;;;;;;5070604;28;20049;-89
2021/09/11 08:39:19;;;;;;;20.42;7.57;;;18.60;99.90;;;;;;5070201;28;20045;-89
2021/09/11 08:42:03;;;;;;;16.35;7.72;;;18.50;99.90;;;;;;5040439;28;20053;-89
2021/09/11 08:44:48;;;;;;;12.45;7.28;;;18.50;99.90;;;;;;5070653;28;20037;-90
2021/09/11 08:47:45;;;;;;;13.88;7.18;;;18.60;99.90;;;;;;5070683;28;20067;-90
2021/09/11 08:50:47;;;;;;;12.80;6.75;;;18.60;99.90;;;;;;5056049;28;20065;-91
2021/09/11 08:53:42;;;;;;;15.68;6.50;;;18.70;99.90;;;;;;5084237;28;20043;-90
2021/09/11 08:56:29;;;;;;;17.67;7.18;;;18.70;99.90;;;;;;5061360;28;20059;-89
2021/09/11 08:59:13;;;;;;;12.35;6.82;;;18.70;99.90;;;;;;5070875;28;20045;-87
2021/09/11 09:02:14;;;;;;;13.68;6.43;;;18.80;99.90;;;;;;5072674;28;20045;-89
2021/09/11 09:04:55;;;;;;;14.68;6.88;;;18.80;99.90;;;;;;5057091;28;20041;-90
2021/09/11 09:07:38;;;;;;;16.48;7.85;;;18.80;99.90;;;;;;5071931;28;20054;-87
2021/09/11 09:10:16;;;;;;;20.98;7.82;;;18.80;99.90;;;;;;5066954;28;20044;-87
2021/09/11 09:12:49;;;;;;;15.40;7.90;;;18.80;99.90;;;;;;5050621;28;20381;-86
2021/09/11 09:15:27;;;;;;;15.63;7.13;;;19.70;99.90;;;;;;5080471;28;20041;-89
2021/09/11 09:17:57;;;;;;;17.67;7.65;;;18.70;99.90;;;;;;5052954;28;20417;-87
2021/09/11 09:20:29;;;;;;;12.30;6.68;;;18.70;99.90;;;;;;5054839;28;20044;-89
2021/09/11 09:23:00;;;;;;;18.10;7.75;;;18.80;99.90;;;;;;5026623;28;20065;-86
2021/09/11 09:25:40;;;;;;;15.52;8.13;;;18.80;99.90;;;;;;5073669;28;20044;-85
2021/09/11 09:28:28;;;;;;;17.30;6.63;;;18.80;99.90;;;;;;5053433;28;20037;-87
2021/09/11 09:30:57;;;;;;;16.55;7.10;;;18.80;99.90;;;;;;5060758;28;20060;-85
2021/09/11 09:33:30;;;;;;;18.05;5.90;;;18.80;99.90;;;;;;5049654;28;20041;-87
2021/09/11 09:36:11;;;;;;;14.00;6.90;;;18.80;99.90;;;;;;5015864;28;20056;-87
2021/09/11 09:38:46;;;;;;;14.43;6.53;;;18.90;99.90;;;;;;5065606;28;20052;-88
2021/09/11 09:41:15;;;;;;;12.88;6.97;;;18.70;99.90;;;;;;5072866;28;20037;-90
2021/09/11 09:43:48;;;;;;;16.23;6.47;;;18.90;99.90;;;;;;5065311;28;20059;-87
2021/09/11 09:46:19;;;;;;;20.08;9.00;;;19.00;99.90;;;;;;5052496;28;20059;-86
2021/09/11 09:48:48;;;;;;;17.00;6.50;;;19.10;99.90;;;;;;5065735;28;20049;-88
2021/09/11 09:51:22;;;;;;;13.90;7.25;;;19.10;99.90;;;;;;5061610;28;20056;-86
2021/09/11 09:53:52;;;;;;;18.92;6.13;;;19.30;99.90;;;;;;5053531;28;20057;-86
2021/09/11 09:56:26;;;;;;;12.93;5.65;;;19.30;99.90;;;;;;5064261;28;20060;-87
2021/09/11 09:59:00;;;;;;;14.50;5.70;;;19.30;99.90;;;;;;5068304;28;20078;-87
2021/09/11 10:01:29;;;;;;;17.05;7.03;;;19.40;99.90;;;;;;5065748;28;20056;-87
2021/09/11 10:03:57;;;;;;;14.30;5.55;;;19.50;99.90;;;;;;5044366;28;20057;-87
2021/09/11 10:06:30;;;;;;;19.67;6.90;;;19.50;99.90;;;;;;5041484;28;20052;-88
2021/09/11 10:09:07;;;;;;;14.10;5.45;;;19.70;99.90;;;;;;5073418;28;20051;-87
2021/09/11 10:12:32;;;;;;;16.92;5.82;;;19.90;99.90;;;;;;5065058;28;20041;-87
2021/09/11 10:15:33;;;;;;;20.70;6.10;;;19.80;99.90;;;;;;5049230;28;20488;-86
2021/09/11 10:18:28;;;;;;;14.65;5.65;;;20.00;99.90;;;;;;5067480;28;20041;-85
2021/09/11 10:21:37;;;;;;;18.20;5.05;;;20.10;99.90;;;;;;5058176;28;20059;-88
2021/09/11 10:24:16;;;;;;;16.40;6.55;;;20.10;99.90;;;;;;5079247;28;20055;-88
2021/09/11 10:26:59;;;;;;;10.73;5.25;;;20.00;99.90;;;;;;5055687;28;20049;-86
2021/09/11 10:29:40;;;;;;;13.15;6.20;;;19.40;99.90;;;;;;5069430;28;20040;-86
2021/09/11 10:32:21;;;;;;;10.85;5.45;;;20.00;99.90;;;;;;5058966;28;20637;-86
2021/09/11 10:35:07;;;;;;;15.50;6.38;;;20.10;99.90;;;;;;5078467;28;20057;-88
2021/09/11 10:37:58;;;;;;;13.57;6.37;;;20.20;99.90;;;;;;5073022;28;20049;-85
2021/09/11 10:40:44;;;;;;;12.40;5.68;;;20.30;99.90;;;;;;5068372;28;20045;-88
2021/09/11 10:43:17;;;;;;;10.63;5.68;;;20.40;99.90;;;;;;5067857;28;20075;-87
2021/09/11 10:46:09;;;;;;;18.25;7.28;;;20.50;99.90;;;;;;5073794;28;20049;-87
2021/09/11 10:48:55;;;;;;;17.52;5.82;;;20.60;99.90;;;;;;5098513;28;20045;-88
2021/09/11 10:51:35;;;;;;;12.68;5.70;;;20.60;99.90;;;;;;5063307;28;20053;-88
2021/09/11 10:54:13;;;;;;;11.10;5.75;;;20.80;99.90;;;;;;5076788;28;20048;-89
2021/09/11 10:56:43;;;;;;;11.18;5.60;;;20.80;99.90;;;;;;5069142;28;20067;-89
2021/09/11 10:59:19;;;;;;;16.98;5.38;;;20.90;99.90;;;;;;5037849;28;20064;-87
2021/09/11 11:02:06;;;;;;;;;;;21.00;99.90;;;;;;5065304;28;20048;-87
2021/09/11 11:04:38;;;;;;;11.85;4.90;;;21.00;99.90;;;;;;5050023;28;19927;-89
2021/09/11 11:07:11;;;;;;;9.90;4.68;;;21.10;99.90;;;;;;5065813;28;20045;-88
2021/09/11 11:09:47;;;;;;;9.63;4.85;;;21.10;99.90;;;;;;5043205;28;20053;-87
2021/09/11 11:12:36;;;;;;;11.55;4.72;;;21.20;99.90;;;;;;5065822;28;20049;-88
2021/09/11 11:15:17;;;;;;;15.85;4.60;;;21.40;99.90;;;;;;5058494;28;20052;-89
2021/09/11 11:17:49;;;;;;;;;;;21.40;99.90;;;;;;5061446;28;20049;-90
2021/09/11 11:20:42;;;;;;;;;;;21.40;99.90;;;;;;5042319;28;20031;-90
2021/09/11 11:23:11;;;;;;;8.95;4.03;;;21.30;99.90;;;;;;5077302;28;19921;-92
2021/09/11 11:25:50;;;;;;;7.63;3.78;;;21.20;99.90;;;;;;5037687;28;20052;-86
2021/09/11 11:28:23;;;;;;;7.25;3.63;;;21.10;99.90;;;;;;5065178;28;20041;-86
2021/09/11 11:30:55;;;;;;;9.00;4.13;;;21.00;99.90;;;;;;5064230;28;20400;-87
2021/09/11 11:33:44;;;;;;;11.10;4.13;;;21.10;99.90;;;;;;5035756;28;20064;-88
2021/09/11 11:36:20;;;;;;;9.00;3.47;;;21.30;99.90;;;;;;5049853;28;20044;-87
2021/09/11 11:38:51;;;;;;;7.22;3.78;;;21.40;99.90;;;;;;5057864;28;20385;-87
2021/09/11 11:41:30;;;;;;;9.43;4.40;;;21.60;99.90;;;;;;5040861;28;20048;-88
2021/09/11 11:43:58;;;;;;;9.07;3.88;;;21.70;99.90;;;;;;5044208;28;20055;-89
2021/09/11 11:46:27;;;;;;;9.13;3.90;;;21.90;99.90;;;;;;5062736;28;20049;-88
2021/09/11 11:48:59;;;;;;;8.75;3.42;;;21.90;99.30;;;;;;5065987;28;20045;-90
2021/09/11 11:51:54;;;;;;;12.75;4.60;;;21.80;99.00;;;;;;5039644;28;20045;-87
2021/09/11 11:54:30;;;;;;;7.90;3.90;;;21.70;99.00;;;;;;5044875;28;20044;-87
2021/09/11 11:57:09;;;;;;;7.80;3.55;;;21.70;99.30;;;;;;5044671;28;20057;-87
2021/09/11 11:59:58;;;;;;;8.05;4.28;;;21.80;99.30;;;;;;5047957;28;20067;-87
2021/09/11 12:02:31;;;;;;;8.77;4.88;;;21.90;99.20;;;;;;5060503;28;20051;-87
2021/09/11 12:05:25;;;;;;;9.43;3.42;;;22.00;99.00;;;;;;5059437;28;20045;-86
2021/09/11 12:08:03;;;;;;;7.97;3.80;;;22.10;98.30;;;;;;5060898;28;20327;-88
2021/09/11 12:10:34;;;;;;;8.27;3.45;;;22.20;98.30;;;;;;5057441;28;20063;-87
2021/09/11 12:13:10;;;;;;;;;;;22.30;98.20;;;;;;5061762;28;20053;-87
2021/09/11 12:15:39;;;;;;;9.32;4.60;;;22.30;97.10;;;;;;5039870;28;19928;-90
2021/09/11 12:18:16;;;;;;;6.43;3.30;;;22.40;97.50;;;;;;5053581;28;20041;-89
2021/09/11 12:20:54;;;;;;;5.70;2.95;;;22.40;97.20;;;;;;5064803;28;20065;-84
2021/09/11 12:23:34;;;;;;;6.07;2.35;;;22.50;97.00;;;;;;5080833;28;20070;-87
2021/09/11 12:26:08;;;;;;;8.82;2.83;;;22.50;96.60;;;;;;5059111;28;20047;-86
2021/09/11 12:28:53;;;;;;;11.48;3.25;;;22.50;96.90;;;;;;5062827;28;20068;-86
2021/09/11 12:31:56;;;;;;;7.93;2.80;;;22.50;96.70;;;;;;5074325;28;20032;-88
2021/09/11 12:34:25;;;;;;;7.75;2.60;;;22.60;96.10;;;;;;5054502;28;20407;-88
2021/09/11 12:37:02;;;;;;;4.95;2.25;;;22.70;96.40;;;;;;5074529;28;20282;-87
2021/09/11 12:39:36;;;;;;;4.70;2.30;;;22.90;96.40;;;;;;5067075;28;20061;-87
2021/09/11 12:42:10;;;;;;;5.85;2.38;;;22.90;95.90;;;;;;5045125;28;20053;-88
2021/09/11 12:44:41;;;;;;;4.78;2.05;;;22.90;95.10;;;;;;5061493;28;20494;-87
2021/09/11 12:47:13;;;;;;;8.32;3.15;;;22.90;95.50;;;;;;5045987;28;20648;-87
2021/09/11 12:49:48;;;;;;;9.48;2.63;;;23.00;95.70;;;;;;5049040;28;20048;-85
2021/09/11 12:52:17;;;;;;;5.97;2.28;;;23.80;95.30;;;;;;5060692;28;20049;-87
2021/09/11 12:55:07;;;;;;;4.57;2.45;;;23.20;95.30;;;;;;5061608;28;20040;-87
2021/09/11 12:57:45;;;;;;;6.38;2.78;;;23.30;95.00;;;;;;5054472;28;20037;-86
2021/09/11 13:00:15;;;;;;;8.15;2.28;;;23.30;95.00;;;;;;5049202;28;20049;-86
2021/09/11 13:02:43;;;;;;;5.63;3.13;;;23.30;95.10;;;;;;5042321;28;20072;-88
2021/09/11 13:05:12;;;;;;;4.03;2.13;;;23.20;94.90;;;;;;5054979;28;20052;-89
2021/09/11 13:07:40;;;;;;;2.90;1.90;;;23.00;95.10;;;;;;5059410;28;20045;-88
2021/09/11 13:10:11;;;;;;;9.32;2.72;;;22.90;95.30;;;;;;5041335;28;20045;-90
2021/09/11 13:12:42;;;;;;;7.07;2.20;;;22.80;95.40;;;;;;5045457;28;20045;-91
2021/09/11 13:15:13;;;;;;;9.65;2.90;;;22.80;95.50;;;;;;5061823;28;20498;-90
2021/09/11 13:17:43;;;;;;;4.82;2.53;;;22.70;95.60;;;;;;5055381;28;20033;-87
2021/09/11 13:20:16;;;;;;;6.13;3.65;;;22.70;95.50;;;;;;5042734;28;20057;-88
2021/09/11 13:22:43;;;;;;;6.85;2.63;;;22.70;95.60;;;;;;5055997;28;20033;-89
2021/09/11 13:25:13;;;;;;;7.38;2.40;;;22.60;95.80;;;;;;5057875;28;20041;-90
2021/09/11 13:27:41;;;;;;;4.38;1.90;;;22.60;95.80;;;;;;5057102;28;20029;-88
2021/09/11 13:30:10;;;;;;;4.97;2.35;;;22.40;95.90;;;;;;5041307;28;20067;-90
2021/09/11 13:32:46;;;;;;;8.80;2.20;;;22.10;95.80;;;;;;5068549;28;20036;-87
2021/09/11 13:35:18;;;;;;;7.07;2.05;;;22.90;95.70;;;;;;5069788;28;20043;-85
2021/09/11 13:37:50;;;;;;;9.63;2.40;;;23.00;95.70;;;;;;5065504;28;20080;-90
2021/09/11 13:40:23;;;;;;;8.07;1.92;;;23.30;95.40;;;;;;5068300;28;20045;-87
2021/09/11 13:42:54;;;;;;;8.70;2.50;;;23.40;95.10;;;;;;5060042;28;20048;-87
2021/09/11 13:45:43;;;;;;;5.03;2.38;;;23.50;95.10;;;;;;5068950;28;20029;-88
2021/09/11 13:48:10;;;;;;;2.78;1.67;;;23.40;94.70;;;;;;5061007;28;20053;-87